Time;durP1;ratioP1;P1;durP2;ratioP2;P2;SDS_P1;SDS_P2;PMS_P1;PMS_P2;Temp;Humidity;BMP_temperature;BMP_pressure;BME280_temperature;BME280_humidity;BME280_pressure;Samples;Min_cycle;Max_cycle;Signal;HPM_P1;HPM_P2
2023/09/12 00:00:43;;;;;;;3.88;3.53;;;;;;;24.07;61.94;100289.69;4603902;27;20026;-66
2023/09/12 00:02:54;;;;;;;3.80;3.42;;;;;;;24.03;62.51;100283.06;4605786;27;20474;-66
2023/09/12 00:05:05;;;;;;;3.70;3.30;;;;;;;24.09;61.78;100289.28;4604375;27;20464;-66
2023/09/12 00:07:15;;;;;;;3.50;3.17;;;;;;;24.05;62.06;100286.38;4606335;27;20027;-66
2023/09/12 00:09:27;;;;;;;3.92;3.35;;;;;;;23.95;61.71;100261.13;4605490;27;20059;-66
2023/09/12 00:11:38;;;;;;;4.68;3.50;;;;;;;24.09;61.90;100280.63;4605404;27;20043;-66
2023/09/12 00:13:48;;;;;;;4.05;3.45;;;;;;;24.06;62.07;100267.84;4584418;27;20024;-66
2023/09/12 00:15:59;;;;;;;3.83;3.42;;;;;;;24.03;61.70;100250.50;4604895;27;20498;-66
2023/09/12 00:18:09;;;;;;;4.10;3.70;;;;;;;24.08;61.99;100267.44;4586565;27;20039;-66
2023/09/12 00:20:19;;;;;;;3.83;3.47;;;;;;;24.08;61.89;100274.03;4589602;27;20087;-66
2023/09/12 00:22:30;;;;;;;5.05;3.40;;;;;;;24.04;61.93;100270.28;4605293;27;20024;-67
2023/09/12 00:24:40;;;;;;;3.95;3.38;;;;;;;24.04;61.64;100264.53;4604877;27;20333;-67
2023/09/12 00:26:51;;;;;;;3.70;3.40;;;;;;;24.04;61.83;100261.63;4605063;27;20067;-67
2023/09/12 00:29:02;;;;;;;3.67;3.35;;;;;;;24.06;61.86;100270.72;4604571;27;20027;-67
2023/09/12 00:31:12;;;;;;;3.40;3.10;;;;;;;24.06;61.90;100285.16;4573196;27;20036;-66
2023/09/12 00:33:23;;;;;;;4.20;3.40;;;;;;;24.07;62.05;100281.03;4605909;27;20019;-67
2023/09/12 00:35:33;;;;;;;4.20;3.72;;;;;;;24.07;62.13;100272.38;4604267;27;20032;-66
2023/09/12 00:37:44;;;;;;;3.80;3.40;;;;;;;24.08;61.96;100255.91;4587039;27;20121;-66
2023/09/12 00:39:54;;;;;;;4.00;3.60;;;;;;;24.05;62.16;100248.91;4605156;27;20040;-67
2023/09/12 00:42:07;;;;;;;4.10;3.70;;;;;;;23.94;62.39;100224.88;4606228;27;20043;-66
2023/09/12 00:44:17;;;;;;;4.00;3.63;;;;;;;23.98;62.01;100248.81;4586843;27;20024;-66
2023/09/12 00:46:28;;;;;;;4.10;3.70;;;;;;;24.04;62.22;100270.28;4605127;27;20039;-68
2023/09/12 00:48:40;;;;;;;4.45;4.05;;;;;;;24.01;62.07;100271.09;4596186;27;20040;-66
2023/09/12 00:50:51;;;;;;;4.63;3.70;;;;;;;24.09;61.96;100283.50;4586298;27;20044;-65
2023/09/12 00:53:03;;;;;;;3.97;3.60;;;;;;;24.08;61.99;100278.97;4604327;27;20131;-66
2023/09/12 00:55:14;;;;;;;4.53;3.65;;;;;;;24.06;61.96;100267.84;4596436;27;20074;-66
2023/09/12 00:57:25;;;;;;;3.70;3.35;;;;;;;24.07;62.23;100269.50;4569974;27;20024;-66
2023/09/12 00:59:36;;;;;;;3.78;3.35;;;;;;;24.03;62.41;100260.00;4603748;27;20031;-66
2023/09/12 01:01:47;;;;;;;4.00;3.60;;;;;;;24.05;62.07;100257.56;4590547;27;20040;-66
2023/09/12 01:03:58;;;;;;;4.07;3.65;;;;;;;24.05;62.04;100248.91;4586395;27;20046;-66
2023/09/12 01:06:09;;;;;;;4.18;3.78;;;;;;;24.07;62.25;100248.50;4605854;27;20028;-66
2023/09/12 01:08:20;;;;;;;3.75;3.35;;;;;;;24.08;62.39;100258.78;4595861;27;20039;-66
2023/09/12 01:10:30;;;;;;;4.07;3.63;;;;;;;24.04;62.23;100267.41;4604167;27;20036;-66
2023/09/12 01:12:41;;;;;;;4.40;4.00;;;;;;;24.01;62.20;100253.78;4593519;27;20043;-66
2023/09/12 01:14:51;;;;;;;4.03;3.63;;;;;;;24.07;62.10;100265.81;4607939;27;20070;-66
2023/09/12 01:17:02;;;;;;;5.15;4.10;;;;;;;24.07;61.92;100268.69;4576650;27;20040;-66
2023/09/12 01:19:15;;;;;;;5.10;4.10;;;;;;;24.06;61.69;100272.78;4588249;27;20094;-67
2023/09/12 01:22:02;;;;;;;4.10;3.70;;;;;;;24.05;61.70;100266.19;4608070;27;20633;-67
2023/09/12 01:24:21;;;;;;;4.10;3.70;;;;;;;24.08;61.82;100259.63;4608726;27;20043;-67
2023/09/12 01:26:55;;;;;;;3.92;3.60;;;;;;;24.08;61.79;100256.75;4588081;27;20746;-67
2023/09/12 01:29:07;;;;;;;3.80;3.50;;;;;;;24.08;61.76;100271.16;4592229;27;20028;-67
2023/09/12 01:31:19;;;;;;;3.90;3.60;;;;;;;24.07;61.50;100277.34;4608112;27;20593;-67
2023/09/12 01:33:29;;;;;;;4.22;3.70;;;;;;;24.07;61.51;100288.88;4589295;27;20068;-67
2023/09/12 01:35:40;;;;;;;4.55;4.07;;;;;;;24.04;61.11;100287.59;4581365;27;20067;-67
2023/09/12 01:37:50;;;;;;;3.80;3.40;;;;;;;24.03;61.09;100279.34;4591549;27;20040;-67
2023/09/12 01:40:03;;;;;;;4.25;3.28;;;;;;;24.07;60.83;100304.09;4593229;27;20162;-67
2023/09/12 01:42:17;;;;;;;3.50;3.20;;;;;;;24.08;61.22;100302.03;4586997;27;20031;-67
2023/09/12 01:44:29;;;;;;;3.05;2.80;;;;;;;24.07;60.74;100304.09;4606707;27;20111;-67
2023/09/12 01:46:41;;;;;;;3.28;2.95;;;;;;;24.01;60.71;100317.22;4599123;27;20070;-68
2023/09/12 01:48:55;;;;;;;3.20;2.90;;;;;;;24.03;60.73;100314.78;4591467;27;20843;-67
2023/09/12 01:51:07;;;;;;;2.40;2.20;;;;;;;24.05;60.47;100302.84;4606597;27;20118;-67
2023/09/12 01:53:18;;;;;;;3.22;2.40;;;;;;;24.06;60.72;100324.66;4606707;27;20039;-67
2023/09/12 01:55:29;;;;;;;2.47;2.22;;;;;;;24.03;60.41;100326.31;4607295;27;20032;-67
2023/09/12 01:57:40;;;;;;;2.30;2.10;;;;;;;24.02;60.31;100321.78;4588670;27;20043;-67
2023/09/12 01:59:51;;;;;;;2.55;2.30;;;;;;;24.03;60.30;100320.53;4591831;27;20879;-67
2023/09/12 02:02:02;;;;;;;2.50;2.30;;;;;;;23.99;60.38;100313.91;4589828;27;20032;-67
2023/09/12 02:04:12;;;;;;;2.63;2.20;;;;;;;24.04;60.34;100322.19;4607877;27;20372;-67
2023/09/12 02:06:23;;;;;;;2.03;1.88;;;;;;;24.06;60.26;100330.44;4607889;27;20487;-67
2023/09/12 02:08:33;;;;;;;2.40;2.20;;;;;;;24.04;60.12;100327.97;4607101;27;20458;-67
2023/09/12 02:10:44;;;;;;;2.83;2.10;;;;;;;24.04;60.46;100332.91;4606535;27;20419;-67
2023/09/12 02:12:54;;;;;;;2.20;2.00;;;;;;;24.03;60.20;100337.84;4606584;27;20038;-67
2023/09/12 02:15:05;;;;;;;2.42;2.22;;;;;;;24.06;60.31;100351.47;4606548;27;20044;-68
2023/09/12 02:17:16;;;;;;;2.10;1.90;;;;;;;24.04;60.17;100356.78;4587313;27;20050;-67
2023/09/12 02:19:26;;;;;;;2.30;2.10;;;;;;;24.02;60.43;100353.50;4606821;27;20050;-67
2023/09/12 02:21:37;;;;;;;2.10;1.90;;;;;;;24.04;59.89;100374.09;4607051;27;20069;-67
2023/09/12 02:23:47;;;;;;;2.22;2.03;;;;;;;24.04;59.95;100364.63;4586423;27;20095;-67
2023/09/12 02:25:57;;;;;;;2.42;2.22;;;;;;;24.04;60.40;100379.84;4606386;27;20035;-67
2023/09/12 02:28:08;;;;;;;2.13;1.92;;;;;;;24.00;60.28;100369.50;4606005;27;20444;-67
2023/09/12 02:30:18;;;;;;;2.70;1.90;;;;;;;24.02;60.04;100379.44;4586784;27;20043;-67
2023/09/12 02:32:29;;;;;;;2.45;2.10;;;;;;;24.02;60.18;100367.91;4607916;27;20123;-67
2023/09/12 02:34:40;;;;;;;2.30;2.10;;;;;;;24.01;60.43;100360.47;4606877;27;20521;-67
2023/09/12 02:36:50;;;;;;;2.67;2.35;;;;;;;24.00;60.32;100353.06;4590681;27;20032;-67
2023/09/12 02:39:01;;;;;;;2.72;2.10;;;;;;;24.02;59.84;100358.44;4589111;27;20089;-67
2023/09/12 02:41:11;;;;;;;2.50;2.05;;;;;;;24.02;59.78;100353.50;4589197;27;20051;-67
2023/09/12 02:43:22;;;;;;;2.40;2.20;;;;;;;24.01;59.94;100350.97;4590238;27;20069;-67
2023/09/12 02:45:32;;;;;;;2.90;2.33;;;;;;;24.01;60.00;100334.53;4604359;27;20040;-67
2023/09/12 02:47:43;;;;;;;2.63;2.35;;;;;;;24.02;60.43;100323.81;4606890;27;20043;-67
2023/09/12 02:49:53;;;;;;;3.17;2.55;;;;;;;23.99;59.79;100301.56;4606109;27;20385;-67
2023/09/12 02:52:04;;;;;;;3.00;2.70;;;;;;;24.03;60.30;100300.38;4587518;27;20075;-67
2023/09/12 02:54:14;;;;;;;3.25;2.50;;;;;;;24.02;60.04;100295.84;4590322;27;20024;-68
2023/09/12 02:56:25;;;;;;;3.45;2.70;;;;;;;24.03;60.15;100282.22;4606916;27;20081;-67
2023/09/12 02:58:35;;;;;;;4.03;3.30;;;;;;;23.97;60.15;100266.53;4590194;27;20182;-67
2023/09/12 03:00:46;;;;;;;3.72;2.83;;;;;;;23.99;60.37;100278.50;4589054;27;20582;-67
2023/09/12 03:02:56;;;;;;;3.10;2.53;;;;;;;24.00;60.13;100275.22;4589948;27;20043;-67
2023/09/12 03:05:07;;;;;;;2.78;2.55;;;;;;;24.01;60.39;100278.91;4596982;27;20122;-67
2023/09/12 03:07:18;;;;;;;3.03;2.60;;;;;;;24.00;60.37;100275.22;4607093;27;20043;-67
2023/09/12 03:09:29;;;;;;;2.65;2.45;;;;;;;24.03;60.37;100280.19;4597460;27;21466;-67
2023/09/12 03:11:39;;;;;;;3.55;2.70;;;;;;;24.03;60.35;100267.81;4603920;27;20023;-67
2023/09/12 03:13:50;;;;;;;3.08;2.67;;;;;;;23.98;60.35;100260.34;4588776;27;20065;-67
2023/09/12 03:16:00;;;;;;;2.70;2.40;;;;;;;24.03;60.82;100257.13;4588769;27;20027;-67
2023/09/12 03:18:11;;;;;;;2.88;2.40;;;;;;;24.02;60.76;100266.16;4597575;27;20193;-67
2023/09/12 03:20:21;;;;;;;3.30;2.53;;;;;;;24.00;60.68;100269.44;4591067;27;20122;-67
2023/09/12 03:22:34;;;;;;;3.30;2.83;;;;;;;23.99;60.23;100270.66;4588541;27;20454;-67
2023/09/12 03:24:45;;;;;;;3.22;2.60;;;;;;;24.02;60.31;100290.06;4595227;27;20038;-67
2023/09/12 03:26:55;;;;;;;2.70;2.45;;;;;;;24.04;60.31;100293.34;4590991;27;20043;-67
2023/09/12 03:29:06;;;;;;;3.65;2.90;;;;;;;24.04;60.05;100304.88;4589144;27;20491;-67
2023/09/12 03:31:16;;;;;;;3.20;2.78;;;;;;;24.03;60.26;100303.25;4587657;27;20077;-67
2023/09/12 03:33:27;;;;;;;3.00;2.70;;;;;;;23.99;59.76;100296.59;4587244;27;20933;-67
2023/09/12 03:35:37;;;;;;;2.95;2.65;;;;;;;24.02;59.71;100309.41;4605679;27;20035;-67
2023/09/12 03:37:48;;;;;;;3.72;2.60;;;;;;;24.04;59.98;100304.09;4604617;27;20032;-67
2023/09/12 03:39:58;;;;;;;2.92;2.50;;;;;;;24.00;59.68;100304.03;4587417;27;20457;-67
2023/09/12 03:42:09;;;;;;;2.72;2.53;;;;;;;24.03;59.70;100314.78;4596308;27;20104;-67
2023/09/12 03:44:19;;;;;;;3.05;2.72;;;;;;;24.00;59.13;100309.81;4588601;27;20082;-67
2023/09/12 03:46:30;;;;;;;2.90;2.60;;;;;;;24.02;59.80;100318.06;4605572;27;20176;-67
2023/09/12 03:48:40;;;;;;;2.85;2.60;;;;;;;23.98;59.62;100323.78;4605666;27;20491;-67
2023/09/12 03:50:51;;;;;;;3.50;3.05;;;;;;;24.02;59.35;100320.94;4573995;27;20097;-67
2023/09/12 03:53:01;;;;;;;3.35;2.85;;;;;;;24.03;59.42;100326.31;4590160;27;20825;-67
2023/09/12 03:55:13;;;;;;;2.80;2.50;;;;;;;24.03;59.52;100331.25;4595789;27;21516;-67
2023/09/12 03:57:25;;;;;;;3.08;2.72;;;;;;;24.02;59.52;100323.81;4589359;27;20060;-67
2023/09/12 03:59:36;;;;;;;3.17;2.88;;;;;;;24.00;59.53;100321.34;4595700;27;21214;-67
2023/09/12 04:01:47;;;;;;;3.10;2.80;;;;;;;24.01;59.46;100322.16;4604808;27;20027;-67
2023/09/12 04:03:59;;;;;;;3.30;2.90;;;;;;;23.98;59.80;100315.13;4603404;27;20028;-67
2023/09/12 04:06:09;;;;;;;3.28;2.97;;;;;;;23.96;59.69;100314.66;4596729;27;20802;-67
2023/09/12 04:08:20;;;;;;;3.35;3.05;;;;;;;24.01;59.59;100305.69;4589569;27;20110;-67
2023/09/12 04:10:32;;;;;;;3.35;2.88;;;;;;;24.01;59.92;100308.56;4588350;27;20036;-67
2023/09/12 04:12:42;;;;;;;3.05;2.75;;;;;;;24.01;59.93;100314.34;4589568;27;20856;-67
2023/09/12 04:14:54;;;;;;;3.13;2.63;;;;;;;24.01;60.15;100308.56;4606050;27;20024;-67
2023/09/12 04:17:05;;;;;;;3.22;2.53;;;;;;;24.01;59.81;100313.50;4604605;27;20870;-67
2023/09/12 04:19:15;;;;;;;3.38;2.60;;;;;;;24.01;59.69;100317.22;4604903;27;20030;-67
2023/09/12 04:21:26;;;;;;;3.60;2.70;;;;;;;24.02;59.75;100326.72;4604542;27;20038;-67
2023/09/12 04:23:36;;;;;;;3.67;2.40;;;;;;;23.97;59.78;100322.13;4589397;27;20504;-67
2023/09/12 04:25:47;;;;;;;3.45;2.65;;;;;;;24.03;59.74;100346.50;4589964;27;20062;-67
2023/09/12 04:27:57;;;;;;;3.13;2.72;;;;;;;23.98;59.28;100331.59;4585647;27;20032;-67
2023/09/12 04:30:08;;;;;;;3.20;2.80;;;;;;;24.00;59.60;100332.88;4587950;27;20498;-67
2023/09/12 04:32:23;;;;;;;2.67;2.47;;;;;;;24.00;59.67;100338.63;4587648;27;20035;-67
2023/09/12 04:34:33;;;;;;;2.70;2.50;;;;;;;23.97;59.48;100345.19;4573019;27;20036;-67
2023/09/12 04:36:44;;;;;;;2.90;2.60;;;;;;;24.02;59.73;100358.44;4605827;27;20088;-67
2023/09/12 04:38:54;;;;;;;3.13;2.65;;;;;;;24.02;59.74;100367.06;4604295;27;20108;-68
2023/09/12 04:41:06;;;;;;;3.53;2.60;;;;;;;24.01;59.51;100363.34;4605478;27;20039;-67
2023/09/12 04:43:16;;;;;;;2.90;2.60;;;;;;;24.01;59.81;100372.00;4587915;27;20036;-67
2023/09/12 04:45:27;;;;;;;2.97;2.55;;;;;;;23.99;59.96;100367.88;4590346;27;20015;-67
2023/09/12 04:47:37;;;;;;;3.38;2.75;;;;;;;24.00;59.93;100372.41;4604000;27;20673;-67
2023/09/12 04:49:48;;;;;;;3.15;2.70;;;;;;;24.00;59.90;100355.94;4589218;27;20039;-67
2023/09/12 04:51:59;;;;;;;2.58;2.38;;;;;;;23.98;60.17;100346.84;4595044;27;20183;-67
2023/09/12 04:54:09;;;;;;;2.75;2.55;;;;;;;24.00;60.15;100344.41;4589064;27;20039;-67
2023/09/12 04:56:19;;;;;;;3.15;2.67;;;;;;;23.95;60.25;100347.63;4594708;27;20138;-67
2023/09/12 04:58:30;;;;;;;3.00;2.70;;;;;;;24.02;60.08;100359.25;4584720;27;20070;-67
2023/09/12 05:00:41;;;;;;;3.00;2.65;;;;;;;23.96;60.34;100357.91;4585610;27;20122;-67
2023/09/12 05:02:51;;;;;;;2.70;2.50;;;;;;;24.02;60.13;100361.31;4593787;27;20518;-67
2023/09/12 05:05:03;;;;;;;2.80;2.58;;;;;;;24.02;60.36;100365.03;4584074;27;20442;-67
2023/09/12 05:07:14;;;;;;;3.10;2.80;;;;;;;23.97;60.64;100368.25;4585403;27;20811;-67
2023/09/12 05:09:24;;;;;;;3.38;2.75;;;;;;;23.96;60.33;100363.66;4595056;27;20024;-67
2023/09/12 05:11:35;;;;;;;3.30;3.00;;;;;;;24.00;60.29;100363.75;4604115;27;20110;-67
2023/09/12 05:13:46;;;;;;;3.33;3.03;;;;;;;23.99;60.07;100339.84;4585330;27;20044;-67
2023/09/12 05:15:56;;;;;;;2.97;2.67;;;;;;;23.99;60.47;100290.84;4587253;27;20652;-67
2023/09/12 05:18:07;;;;;;;3.40;2.88;;;;;;;24.00;60.57;100262.84;4588675;27;20032;-67
2023/09/12 05:20:18;;;;;;;3.80;2.95;;;;;;;23.96;60.58;100250.44;4603959;27;20027;-67
2023/09/12 05:22:28;;;;;;;3.42;3.13;;;;;;;24.00;60.49;100246.38;4603990;27;20038;-67
2023/09/12 05:24:39;;;;;;;2.70;2.50;;;;;;;23.99;60.94;100236.06;4588680;27;20284;-67
2023/09/12 05:26:50;;;;;;;3.03;2.72;;;;;;;24.00;61.12;100236.91;4587476;27;20396;-67
2023/09/12 05:29:00;;;;;;;3.50;3.20;;;;;;;23.99;61.23;100238.94;4604183;27;20035;-67
2023/09/12 05:31:11;;;;;;;4.10;3.10;;;;;;;24.00;60.91;100252.16;4588487;27;20063;-67
2023/09/12 05:33:21;;;;;;;3.05;2.75;;;;;;;24.01;60.88;100250.91;4587536;27;20023;-67
2023/09/12 05:35:32;;;;;;;3.83;3.47;;;;;;;23.99;61.14;100238.13;4601295;27;20146;-67
2023/09/12 05:37:43;;;;;;;3.30;3.00;;;;;;;23.98;60.90;100248.81;4604648;27;20852;-67
2023/09/12 05:39:53;;;;;;;4.50;3.50;;;;;;;23.99;60.94;100253.34;4587241;27;20063;-67
2023/09/12 05:42:04;;;;;;;3.42;2.90;;;;;;;23.99;61.16;100272.72;4588250;27;20031;-67
2023/09/12 05:44:18;;;;;;;3.58;3.10;;;;;;;24.00;60.85;100289.63;4593497;27;20376;-67
2023/09/12 05:46:29;;;;;;;3.53;3.10;;;;;;;24.01;61.31;100299.91;4602317;27;20030;-67
2023/09/12 05:48:40;;;;;;;3.40;3.10;;;;;;;24.00;61.36;100306.09;4583921;27;20030;-67
2023/09/12 05:50:50;;;;;;;3.47;3.17;;;;;;;23.95;61.00;100289.97;4587603;27;20035;-67
2023/09/12 05:53:01;;;;;;;3.20;2.90;;;;;;;24.00;61.43;100291.66;4594649;27;20555;-67
2023/09/12 05:55:11;;;;;;;3.20;2.90;;;;;;;23.97;61.77;100281.78;4587345;27;20039;-67
2023/09/12 05:57:22;;;;;;;3.40;2.40;;;;;;;24.00;61.84;100275.22;4588395;27;20062;-67
2023/09/12 05:59:33;;;;;;;2.70;2.50;;;;;;;24.02;62.04;100277.69;4598477;27;20149;-67
2023/09/12 06:01:43;;;;;;;2.47;2.28;;;;;;;24.00;62.18;100263.69;4607150;27;20606;-67
2023/09/12 06:03:54;;;;;;;2.25;2.00;;;;;;;24.02;62.05;100260.41;4605232;27;20107;-67
2023/09/12 06:06:04;;;;;;;2.50;2.30;;;;;;;23.99;60.52;100250.47;4587772;27;20020;-67
2023/09/12 06:08:15;;;;;;;2.08;1.88;;;;;;;24.01;61.87;100238.53;4606642;27;20039;-67
2023/09/12 06:10:25;;;;;;;2.33;2.13;;;;;;;24.02;62.54;100241.06;4607402;27;20030;-67
2023/09/12 06:12:36;;;;;;;2.20;2.00;;;;;;;23.97;62.42;100229.03;4606788;27;20045;-67
2023/09/12 06:14:46;;;;;;;2.63;2.00;;;;;;;23.95;62.31;100219.94;4589477;27;20032;-67
2023/09/12 06:16:56;;;;;;;2.38;2.17;;;;;;;24.01;62.39;100229.88;4606875;27;20398;-67
2023/09/12 06:19:07;;;;;;;3.20;2.13;;;;;;;24.01;62.11;100233.59;4590990;27;20094;-67
2023/09/12 06:21:18;;;;;;;2.47;2.10;;;;;;;23.96;62.28;100224.50;4606862;27;20023;-67
2023/09/12 06:23:28;;;;;;;2.22;2.00;;;;;;;24.02;62.10;100237.34;4607946;27;20045;-67
2023/09/12 06:25:38;;;;;;;2.42;2.20;;;;;;;24.02;62.13;100226.63;4606378;27;20035;-67
2023/09/12 06:27:49;;;;;;;3.10;2.53;;;;;;;23.94;61.92;100207.59;4606873;27;20039;-67
2023/09/12 06:29:59;;;;;;;2.88;2.67;;;;;;;23.96;61.48;100219.53;4588028;27;20060;-67
2023/09/12 06:32:10;;;;;;;2.90;2.35;;;;;;;24.02;61.93;100223.75;4574803;27;20095;-67
2023/09/12 06:34:20;;;;;;;3.53;3.10;;;;;;;24.02;61.51;100232.41;4588498;27;20052;-67
2023/09/12 06:36:34;;;;;;;2.45;2.10;;;;;;;24.01;61.97;100235.66;4605782;27;20223;-66
2023/09/12 06:38:44;;;;;;;2.45;2.25;;;;;;;24.00;60.17;100240.63;4604776;27;20589;-66
2023/09/12 06:40:55;;;;;;;2.58;2.38;;;;;;;24.01;59.00;100242.25;4607058;27;20043;-66
2023/09/12 06:43:06;;;;;;;3.88;3.13;;;;;;;24.02;58.55;100232.41;4606316;27;20081;-66
2023/09/12 06:45:16;;;;;;;2.80;2.60;;;;;;;24.01;58.14;100233.59;4606619;27;20080;-66
2023/09/12 06:47:27;;;;;;;2.80;2.28;;;;;;;24.01;57.51;100250.06;4596417;27;20036;-66
2023/09/12 06:49:37;;;;;;;3.20;2.80;;;;;;;23.97;58.65;100263.66;4604539;27;20066;-66
2023/09/12 06:51:48;;;;;;;3.60;3.05;;;;;;;23.93;59.85;100257.81;4585763;27;20035;-66
2023/09/12 06:53:58;;;;;;;3.28;2.97;;;;;;;23.88;59.84;100243.75;4573804;27;20420;-66
2023/09/12 06:56:09;;;;;;;3.30;3.00;;;;;;;23.99;60.16;100267.78;4605693;27;20161;-66
2023/09/12 06:58:19;;;;;;;4.00;3.60;;;;;;;24.00;60.86;100278.09;4605564;27;20032;-66
2023/09/12 07:00:31;;;;;;;3.40;3.10;;;;;;;24.00;60.84;100285.91;4588207;27;20445;-66
2023/09/12 07:02:41;;;;;;;3.63;3.33;;;;;;;24.00;60.72;100280.97;4605128;27;20058;-69
2023/09/12 07:04:52;;;;;;;3.35;3.00;;;;;;;23.99;60.07;100287.94;4586117;27;20023;-66
2023/09/12 07:07:04;;;;;;;3.80;3.40;;;;;;;23.99;60.56;100296.59;4604942;27;20047;-66
2023/09/12 07:09:14;;;;;;;3.30;2.90;;;;;;;23.98;60.80;100292.06;4605442;27;20031;-66
2023/09/12 07:11:25;;;;;;;3.95;3.00;;;;;;;23.98;61.09;100277.66;4605011;27;20032;-66
2023/09/12 07:13:35;;;;;;;3.35;3.05;;;;;;;24.01;60.62;100288.38;4604463;27;20039;-67
2023/09/12 07:15:46;;;;;;;3.95;3.55;;;;;;;24.01;61.11;100268.22;4589714;27;20036;-66
2023/09/12 07:17:56;;;;;;;4.07;3.67;;;;;;;23.99;61.36;100276.41;4587320;27;20039;-66
2023/09/12 07:20:11;;;;;;;3.40;3.10;;;;;;;24.01;61.38;100278.91;4605652;27;20115;-66
2023/09/12 07:22:21;;;;;;;3.65;3.35;;;;;;;24.00;61.29;100277.25;4597093;27;20029;-66
2023/09/12 07:24:32;;;;;;;4.25;3.70;;;;;;;24.01;62.20;100278.91;4606161;27;20472;-66
2023/09/12 07:26:42;;;;;;;3.80;3.50;;;;;;;23.98;62.89;100286.31;4589485;27;20032;-67
2023/09/12 07:28:53;;;;;;;4.28;3.55;;;;;;;24.03;62.81;100313.94;4586275;27;20600;-66
2023/09/12 07:31:03;;;;;;;4.00;3.60;;;;;;;24.02;62.56;100310.25;4605165;27;20076;-66
2023/09/12 07:33:14;;;;;;;6.00;3.67;;;;;;;24.01;62.96;100317.22;4585518;27;20040;-66
2023/09/12 07:35:24;;;;;;;4.07;3.67;;;;;;;24.03;63.47;100329.19;4606166;27;20027;-66
2023/09/12 07:37:35;;;;;;;3.90;3.50;;;;;;;24.02;63.22;100306.53;4590433;27;20039;-67
2023/09/12 07:39:45;;;;;;;3.50;3.17;;;;;;;24.01;63.30;100317.22;4590214;27;20047;-66
2023/09/12 07:41:55;;;;;;;3.45;3.15;;;;;;;24.02;62.99;100323.81;4606345;27;20118;-66
2023/09/12 07:44:07;;;;;;;3.88;3.30;;;;;;;23.99;63.35;100339.84;4604640;27;20047;-68
2023/09/12 07:46:18;;;;;;;4.10;3.70;;;;;;;24.03;63.30;100355.13;4602983;27;20110;-66
2023/09/12 07:48:28;;;;;;;3.88;3.47;;;;;;;24.04;63.45;100367.50;4604506;27;20476;-66
2023/09/12 07:50:39;;;;;;;3.90;3.50;;;;;;;24.04;63.27;100365.44;4604312;27;20023;-67
2023/09/12 07:52:49;;;;;;;3.70;3.22;;;;;;;24.02;63.51;100356.38;4604383;27;20031;-66
2023/09/12 07:55:00;;;;;;;3.70;3.35;;;;;;;24.03;63.66;100358.03;4603947;27;20050;-66
2023/09/12 07:57:10;;;;;;;3.97;3.58;;;;;;;24.03;63.83;100352.25;4604161;27;21401;-66
2023/09/12 07:59:22;;;;;;;3.50;3.00;;;;;;;24.03;63.69;100366.69;4605597;27;20043;-66
2023/09/12 08:01:32;;;;;;;3.20;2.90;;;;;;;24.02;63.59;100379.44;4603301;27;20083;-66
2023/09/12 08:03:43;;;;;;;3.13;2.83;;;;;;;24.03;63.91;100383.97;4604891;27;20073;-66
2023/09/12 08:05:57;;;;;;;3.47;2.88;;;;;;;24.04;63.91;100402.13;4604392;27;20059;-66
2023/09/12 08:08:08;;;;;;;3.47;2.90;;;;;;;24.00;63.75;100398.34;4589248;27;20078;-67
2023/09/12 08:10:18;;;;;;;3.75;3.25;;;;;;;24.00;63.18;100393.41;4596385;27;20691;-67
2023/09/12 08:12:29;;;;;;;3.92;3.22;;;;;;;24.03;63.75;100404.16;4603806;27;20571;-67
2023/09/12 08:14:39;;;;;;;3.55;3.15;;;;;;;24.04;63.09;100414.44;4603104;27;20023;-67
2023/09/12 08:16:49;;;;;;;3.45;2.88;;;;;;;24.03;63.43;100423.50;4605732;27;20051;-67
2023/09/12 08:19:00;;;;;;;3.20;2.25;;;;;;;24.00;62.44;100436.66;4590033;27;20169;-65
2023/09/12 08:21:10;;;;;;;2.58;2.38;;;;;;;24.03;62.17;100455.22;4603324;27;20036;-67
2023/09/12 08:23:21;;;;;;;2.25;1.92;;;;;;;23.94;62.18;100460.44;4603959;27;20039;-65
2023/09/12 08:25:31;;;;;;;2.70;2.05;;;;;;;23.92;61.82;100486.78;4604051;27;20031;-65
2023/09/12 08:27:43;;;;;;;2.22;1.80;;;;;;;23.82;61.65;100507.66;4603463;27;20099;-65
2023/09/12 08:29:53;;;;;;;2.70;1.90;;;;;;;23.72;61.67;100488.19;4603341;27;20039;-67
2023/09/12 08:32:04;;;;;;;1.85;1.50;;;;;;;23.63;61.64;100478.97;4604825;27;20180;-67
2023/09/12 08:34:14;;;;;;;1.88;1.73;;;;;;;23.58;61.88;100473.53;4602919;27;20042;-67
2023/09/12 08:36:25;;;;;;;2.08;1.60;;;;;;;23.50;62.21;100458.22;4605136;27;20050;-68
2023/09/12 08:38:35;;;;;;;1.60;1.45;;;;;;;23.50;62.00;100463.16;4603666;27;20059;-67
2023/09/12 08:40:50;;;;;;;1.60;1.40;;;;;;;23.47;62.33;100470.53;4604347;27;20047;-68
2023/09/12 08:43:03;;;;;;;1.30;1.20;;;;;;;23.39;62.99;100459.28;4587174;27;20098;-67
2023/09/12 08:45:16;;;;;;;1.10;1.00;;;;;;;23.42;62.90;100453.59;4589304;27;20035;-68
2023/09/12 08:47:26;;;;;;;1.20;1.10;;;;;;;23.25;62.97;100415.84;4604304;27;20039;-67
2023/09/12 08:49:37;;;;;;;1.35;1.23;;;;;;;23.42;63.21;100444.13;4606411;27;20035;-67
2023/09/12 08:51:48;;;;;;;1.30;1.10;;;;;;;23.43;62.92;100431.38;4603528;27;20031;-67
2023/09/12 08:53:59;;;;;;;1.40;1.30;;;;;;;23.44;62.83;100424.38;4588261;27;20038;-65
2023/09/12 08:56:10;;;;;;;1.67;1.30;;;;;;;23.39;64.87;100413.19;4588404;27;20036;-65
2023/09/12 08:58:22;;;;;;;1.20;1.10;;;;;;;23.43;63.92;100428.50;4588564;27;20032;-64
2023/09/12 09:00:34;;;;;;;1.42;1.30;;;;;;;23.42;63.83;100419.00;4571133;27;20032;-63
2023/09/12 09:02:45;;;;;;;1.40;0.98;;;;;;;23.36;64.14;100411.09;4605673;27;20038;-66
2023/09/12 09:04:55;;;;;;;1.20;1.10;;;;;;;23.36;63.14;100428.38;4567253;27;20031;-64
2023/09/12 09:07:06;;;;;;;1.40;1.30;;;;;;;23.46;62.96;100457.34;4602503;27;20220;-65
2023/09/12 09:09:19;;;;;;;1.50;1.40;;;;;;;23.47;64.82;100452.41;4604117;27;20039;-65
2023/09/12 09:11:29;;;;;;;1.38;1.10;;;;;;;23.45;63.85;100434.69;4604531;27;20034;-65
2023/09/12 09:13:41;;;;;;;1.30;1.20;;;;;;;23.51;64.15;100424.50;4602847;27;20035;-66
2023/09/12 09:16:24;;;;;;;1.30;1.20;;;;;;;23.48;63.61;100396.47;4602908;27;20035;-65
2023/09/12 09:19:00;;;;;;;1.35;1.23;;;;;;;23.48;63.76;100402.22;4561239;27;20890;-66
2023/09/12 09:21:19;;;;;;;1.42;1.27;;;;;;;23.34;64.56;100402.03;4602108;27;20032;-65
2023/09/12 09:23:34;;;;;;;1.45;1.30;;;;;;;23.33;65.18;100417.66;4602962;27;20044;-65
2023/09/12 09:25:52;;;;;;;1.42;1.20;;;;;;;23.27;65.01;100410.56;4603001;27;20063;-65
2023/09/12 09:28:04;;;;;;;1.70;1.25;;;;;;;23.21;64.44;100398.53;4604775;27;20175;-66
2023/09/12 09:30:14;;;;;;;1.70;1.25;;;;;;;23.23;63.87;100383.75;4591014;27;20032;-65
2023/09/12 09:32:25;;;;;;;1.40;1.27;;;;;;;23.30;64.79;100381.00;4606696;27;20040;-66
2023/09/12 09:34:39;;;;;;;1.73;1.25;;;;;;;23.34;64.32;100370.38;4597709;27;20032;-65
2023/09/12 09:36:53;;;;;;;1.20;1.10;;;;;;;23.39;64.88;100382.34;4605419;27;20040;-65
2023/09/12 09:39:04;;;;;;;1.52;1.40;;;;;;;23.35;64.86;100357.59;4597615;27;20046;-67
2023/09/12 09:41:15;;;;;;;1.73;1.48;;;;;;;23.40;64.37;100368.78;4607723;27;20523;-65
2023/09/12 09:43:25;;;;;;;1.77;1.20;;;;;;;23.39;64.46;100370.00;4607668;27;20032;-64
2023/09/12 09:45:44;;;;;;;1.77;1.38;;;;;;;23.46;64.53;100372.97;4605651;27;20598;-64
2023/09/12 09:48:04;;;;;;;1.70;1.20;;;;;;;23.50;64.75;100376.72;4608995;27;20574;-65
2023/09/12 09:50:15;;;;;;;1.20;1.10;;;;;;;23.53;64.66;100381.72;4601784;27;20479;-65
2023/09/12 09:52:27;;;;;;;1.60;1.13;;;;;;;23.54;63.71;100400.66;4607004;27;20023;-66
2023/09/12 09:54:43;;;;;;;1.27;1.10;;;;;;;23.55;62.75;100399.41;4606491;27;20932;-65
2023/09/12 09:56:55;;;;;;;1.80;1.10;;;;;;;23.55;62.99;100422.47;4588132;27;20031;-65
2023/09/12 09:59:06;;;;;;;1.65;1.30;;;;;;;23.54;64.20;100429.47;4605939;27;20576;-64
2023/09/12 10:01:22;;;;;;;2.05;1.50;;;;;;;23.47;65.60;100432.25;4606707;27;20035;-64
2023/09/12 10:03:34;;;;;;;1.50;1.20;;;;;;;23.44;65.88;100438.78;4607303;27;20563;-63
2023/09/12 10:05:48;;;;;;;1.92;1.45;;;;;;;23.35;66.23;100449.78;4606703;27;20019;-63
2023/09/12 10:08:00;;;;;;;1.65;1.45;;;;;;;23.31;66.18;100460.41;4600262;27;20832;-62
2023/09/12 10:10:11;;;;;;;1.35;1.23;;;;;;;23.33;66.18;100475.25;4611578;27;20890;-62